createdAt,value
2022-10-14T00:01:25.937Z,96.59
2022-10-14T00:04:10.706Z,96.89
2022-10-14T00:06:38.688Z,96.76
2022-10-14T00:09:09.064Z,96.34
2022-10-14T00:11:38.150Z,96.72
2022-10-14T00:14:10.765Z,96.67
2022-10-14T00:16:40.517Z,96.27
2022-10-14T00:19:12.256Z,96.64
2022-10-14T00:21:43.560Z,96.33
2022-10-14T00:24:14.206Z,96.82
2022-10-14T00:26:42.467Z,96.70
2022-10-14T00:29:15.473Z,96.68
2022-10-14T00:31:43.368Z,96.73
2022-10-14T00:34:16.112Z,96.89
2022-10-14T00:36:44.991Z,96.94
2022-10-14T00:39:16.687Z,97.64
2022-10-14T00:41:45.457Z,97.12
2022-10-14T00:44:16.015Z,97.29
2022-10-14T00:46:51.325Z,97.47
2022-10-14T00:49:39.647Z,97.13
2022-10-14T00:52:15.140Z,97.37
2022-10-14T00:55:10.258Z,97.13
2022-10-14T00:57:38.913Z,96.44
2022-10-14T01:00:13.373Z,96.38
2022-10-14T01:02:41.786Z,96.62
2022-10-14T01:05:12.300Z,96.93
2022-10-14T01:07:45.538Z,97.05
2022-10-14T01:10:21.682Z,96.51
2022-10-14T01:13:11.126Z,96.73
2022-10-14T01:15:51.833Z,96.60
2022-10-14T01:18:28.615Z,96.36
2022-10-14T01:20:56.542Z,95.92
2022-10-14T01:24:01.267Z,95.63
2022-10-14T01:26:58.230Z,94.96
2022-10-14T01:29:41.722Z,94.79
2022-10-14T01:32:21.745Z,94.66
2022-10-14T01:35:21.591Z,94.39
2022-10-14T01:38:13.588Z,93.90
2022-10-14T01:40:57.110Z,93.71
2022-10-14T01:43:28.432Z,93.39
2022-10-14T01:45:58.584Z,93.10
2022-10-14T01:48:32.893Z,92.99
2022-10-14T01:51:07.190Z,93.04
2022-10-14T01:53:42.106Z,93.18
2022-10-14T01:56:12.485Z,93.16
2022-10-14T01:58:41.626Z,93.64
2022-10-14T02:01:10.032Z,93.70
2022-10-14T02:03:43.967Z,93.50
2022-10-14T02:06:14.817Z,94.06
2022-10-14T02:09:08.867Z,94.06
2022-10-14T02:12:14.624Z,94.54
2022-10-14T02:14:59.864Z,94.44
2022-10-14T02:17:47.545Z,94.58
2022-10-14T02:20:32.130Z,95.18
2022-10-14T02:23:06.587Z,95.44
2022-10-14T02:25:40.142Z,95.26
2022-10-14T02:28:12.093Z,95.18
2022-10-14T02:30:45.326Z,95.23
2022-10-14T02:33:16.040Z,95.70
2022-10-14T02:35:44.134Z,95.67
2022-10-14T02:38:11.909Z,95.47
2022-10-14T02:40:50.394Z,95.53
2022-10-14T02:43:18.601Z,95.58
2022-10-14T02:45:46.798Z,95.80
2022-10-14T02:48:14.949Z,95.63
2022-10-14T02:50:43.126Z,95.41
2022-10-14T02:53:14.670Z,95.65
2022-10-14T02:55:46.521Z,95.74
2022-10-14T02:58:14.549Z,95.60
2022-10-14T03:00:42.311Z,95.88
2022-10-14T03:03:11.195Z,96.04
2022-10-14T03:05:39.811Z,95.90
2022-10-14T03:08:12.944Z,95.41
2022-10-14T03:10:41.710Z,95.18
2022-10-14T03:13:11.692Z,95.16
2022-10-14T03:15:44.035Z,94.87
2022-10-14T03:18:12.750Z,94.71
2022-10-14T03:20:45.944Z,94.43
2022-10-14T03:23:18.578Z,94.38
2022-10-14T03:25:49.947Z,94.41
2022-10-14T03:28:24.672Z,94.25
2022-10-14T03:30:59.722Z,94.31
2022-10-14T03:33:47.263Z,94.55
2022-10-14T03:36:19.045Z,94.79
2022-10-14T03:38:51.816Z,95.07
2022-10-14T03:41:33.410Z,95.12
2022-10-14T03:44:01.730Z,95.16
2022-10-14T03:46:31.114Z,95.66
2022-10-14T03:48:59.455Z,95.49
2022-10-14T03:51:28.038Z,95.75
2022-10-14T03:54:07.007Z,95.91
2022-10-14T03:56:34.786Z,95.78
2022-10-14T03:59:06.365Z,95.79
2022-10-14T04:01:34.229Z,95.50
2022-10-14T04:04:22.989Z,95.19
2022-10-14T04:06:50.901Z,95.40
2022-10-14T04:09:21.225Z,95.43
2022-10-14T04:11:49.753Z,95.87
2022-10-14T04:14:46.547Z,95.64
2022-10-14T04:17:15.117Z,95.26
2022-10-14T04:19:44.359Z,95.26
2022-10-14T04:22:14.960Z,95.18
2022-10-14T04:24:46.830Z,95.10
2022-10-14T04:27:14.746Z,95.10
2022-10-14T04:29:50.229Z,94.69
2022-10-14T04:32:26.115Z,94.35
2022-10-14T04:34:55.067Z,93.75
2022-10-14T04:37:25.822Z,93.58
2022-10-14T04:40:08.396Z,93.43
2022-10-14T04:42:42.971Z,93.12
2022-10-14T04:45:20.377Z,92.75
2022-10-14T04:47:54.670Z,92.54
2022-10-14T04:50:24.897Z,92.40
2022-10-14T04:53:13.711Z,92.59
2022-10-14T04:55:54.659Z,92.46
2022-10-14T04:58:22.413Z,92.79
2022-10-14T05:00:50.782Z,92.94
2022-10-14T05:03:44.595Z,92.99
2022-10-14T05:06:13.317Z,93.19
2022-10-14T05:08:44.866Z,93.32
2022-10-14T05:11:14.505Z,93.84
2022-10-14T05:13:48.504Z,94.16
2022-10-14T05:16:17.609Z,94.37
2022-10-14T05:18:45.502Z,94.78
2022-10-14T05:21:15.238Z,94.65
2022-10-14T05:23:53.588Z,94.77
2022-10-14T05:26:21.510Z,95.03
2022-10-14T05:28:52.709Z,95.14
2022-10-14T05:31:21.862Z,95.31
2022-10-14T05:33:58.492Z,95.65
2022-10-14T05:36:26.209Z,95.47
2022-10-14T05:38:58.643Z,95.47
2022-10-14T05:41:30.452Z,95.56
2022-10-14T05:43:59.759Z,95.38
2022-10-14T05:46:31.041Z,94.60
2022-10-14T05:49:00.459Z,94.08
2022-10-14T05:51:28.913Z,93.65
2022-10-14T05:54:06.388Z,92.75
2022-10-14T05:56:34.224Z,91.86
2022-10-14T05:59:03.611Z,91.40
2022-10-14T06:01:34.672Z,91.56
2022-10-14T06:04:03.237Z,91.57
2022-10-14T06:06:30.949Z,90.91
2022-10-14T06:08:59.006Z,90.90
2022-10-14T06:11:26.857Z,89.86
2022-10-14T06:13:54.606Z,89.73
2022-10-14T06:16:22.650Z,88.80
2022-10-14T06:18:54.306Z,88.05
2022-10-14T06:21:23.544Z,87.34
2022-10-14T06:23:51.444Z,86.70
2022-10-14T06:26:19.420Z,86.11
2022-10-14T06:28:47.413Z,85.89
2022-10-14T06:31:15.396Z,85.59
2022-10-14T06:33:44.139Z,85.21
2022-10-14T06:36:12.257Z,83.86
2022-10-14T06:38:40.004Z,83.18
2022-10-14T06:41:07.950Z,83.21
2022-10-14T06:43:35.876Z,82.39
2022-10-14T06:46:04.309Z,81.38
2022-10-14T06:48:32.408Z,80.65
2022-10-14T06:51:01.545Z,80.36
2022-10-14T06:53:30.111Z,79.77
2022-10-14T06:56:02.535Z,79.74
2022-10-14T06:58:31.808Z,79.42
2022-10-14T07:01:07.740Z,78.80
2022-10-14T07:03:38.803Z,78.14
2022-10-14T07:06:08.228Z,77.64
2022-10-14T07:08:39.122Z,76.81
2022-10-14T07:11:07.813Z,76.63
2022-10-14T07:13:35.859Z,75.57
2022-10-14T07:16:04.344Z,75.39
2022-10-14T07:18:32.712Z,75.22
2022-10-14T07:21:05.070Z,75.27
2022-10-14T07:23:33.673Z,73.83
2022-10-14T07:26:01.878Z,73.59
2022-10-14T07:28:29.914Z,73.33
2022-10-14T07:31:03.547Z,73.29
2022-10-14T07:33:32.169Z,72.36
2022-10-14T07:36:05.549Z,72.31
2022-10-14T07:38:33.659Z,72.12
2022-10-14T07:41:04.986Z,71.97
2022-10-14T07:43:33.934Z,71.35
2022-10-14T07:46:05.226Z,70.88
2022-10-14T07:48:52.323Z,70.06
2022-10-14T07:51:22.056Z,69.95
2022-10-14T07:53:50.290Z,69.06
2022-10-14T07:56:18.237Z,67.95
2022-10-14T07:58:46.621Z,67.09
2022-10-14T08:01:16.118Z,66.89
2022-10-14T08:03:44.939Z,66.52
2022-10-14T08:06:13.585Z,66.09
2022-10-14T08:08:41.577Z,66.03
2022-10-14T08:11:22.908Z,66.22
2022-10-14T08:13:51.298Z,65.00
2022-10-14T08:16:21.366Z,64.09
2022-10-14T08:18:49.870Z,62.93
2022-10-14T08:21:19.238Z,61.51
2022-10-14T08:23:47.399Z,60.15
2022-10-14T08:26:39.240Z,58.45
2022-10-14T08:29:11.116Z,54.16
2022-10-14T08:31:39.142Z,50.76
2022-10-14T08:34:07.117Z,48.53
2022-10-14T08:36:34.814Z,47.29
2022-10-14T08:39:02.917Z,45.85
2022-10-14T08:41:39.661Z,44.93
2022-10-14T08:44:19.610Z,44.17
2022-10-14T08:46:52.666Z,42.89
2022-10-14T08:49:45.841Z,41.88
2022-10-14T08:52:19.062Z,41.82
2022-10-14T08:54:57.719Z,41.26
2022-10-14T08:57:41.958Z,39.73
2022-10-14T09:00:12.496Z,40.11
2022-10-14T09:02:40.200Z,40.26
2022-10-14T09:05:13.696Z,40.78
2022-10-14T09:07:42.365Z,40.66
2022-10-14T09:10:23.549Z,40.18
2022-10-14T09:12:53.709Z,40.60
2022-10-14T09:15:37.138Z,39.88
2022-10-14T09:18:07.227Z,39.35
2022-10-14T09:20:35.390Z,39.51
2022-10-14T09:23:15.928Z,39.93
2022-10-14T09:26:11.624Z,41.29
2022-10-14T09:28:43.554Z,42.04
2022-10-14T09:31:13.919Z,42.49
2022-10-14T09:33:44.400Z,42.94
2022-10-14T09:36:20.927Z,42.17
2022-10-14T09:38:54.311Z,40.13
2022-10-14T09:41:30.687Z,38.89
2022-10-14T09:44:25.811Z,38.38
2022-10-14T09:46:59.817Z,38.07
2022-10-14T09:49:47.008Z,37.24
2022-10-14T09:52:23.857Z,37.28
2022-10-14T09:54:57.509Z,36.81
2022-10-14T09:57:26.001Z,36.88
2022-10-14T10:00:03.945Z,36.57
2022-10-14T10:02:42.323Z,36.65
2022-10-14T10:05:33.245Z,37.06
2022-10-14T10:08:19.327Z,38.27
2022-10-14T10:11:06.948Z,39.63
2022-10-14T10:13:43.933Z,40.19
2022-10-14T10:16:34.732Z,41.48
2022-10-14T10:19:23.735Z,41.50
2022-10-14T10:21:51.699Z,42.11
2022-10-14T10:24:26.014Z,42.64
2022-10-14T10:26:56.634Z,43.04
2022-10-14T10:29:34.511Z,43.83
2022-10-14T10:32:30.265Z,44.17
2022-10-14T10:35:14.068Z,44.75
2022-10-14T10:37:52.568Z,45.33
2022-10-14T10:40:32.592Z,44.92
2022-10-14T10:43:28.866Z,44.66
2022-10-14T10:45:59.620Z,43.87
2022-10-14T10:48:27.562Z,44.00
2022-10-14T10:51:08.183Z,44.91
2022-10-14T10:53:55.574Z,44.87
2022-10-14T10:56:26.043Z,44.58
2022-10-14T10:59:15.609Z,44.50
2022-10-14T11:01:55.354Z,44.71
2022-10-14T11:04:26.197Z,44.96
2022-10-14T11:07:28.233Z,44.72
2022-10-14T11:10:33.043Z,45.21
2022-10-14T11:13:12.655Z,45.71
2022-10-14T11:15:49.674Z,46.20
2022-10-14T11:18:30.898Z,46.44
2022-10-14T11:21:13.824Z,46.05
2022-10-14T11:23:50.332Z,46.18
2022-10-14T11:26:28.017Z,46.20
2022-10-14T11:29:25.016Z,46.59
2022-10-14T11:32:21.385Z,46.52
2022-10-14T11:35:23.254Z,46.73
2022-10-14T11:38:38.514Z,47.66
2022-10-14T11:41:26.473Z,48.10
2022-10-14T11:43:58.558Z,47.51
2022-10-14T11:46:35.328Z,47.51
2022-10-14T11:49:14.056Z,47.08
2022-10-14T11:51:55.876Z,47.00
2022-10-14T11:54:52.972Z,46.70
2022-10-14T11:57:35.187Z,46.10
2022-10-14T12:00:22.419Z,46.29
2022-10-14T12:03:48.522Z,46.25
2022-10-14T12:06:26.164Z,46.43
2022-10-14T12:09:32.217Z,46.71
2022-10-14T12:12:04.727Z,47.13
2022-10-14T12:14:32.371Z,47.42
2022-10-14T12:17:04.546Z,47.83
2022-10-14T12:19:33.385Z,47.93
2022-10-14T12:22:31.850Z,47.88
2022-10-14T12:25:12.610Z,48.48
2022-10-14T12:27:41.080Z,48.47
2022-10-14T12:30:42.020Z,48.95
2022-10-14T12:33:13.173Z,49.02
2022-10-14T12:35:59.142Z,49.41
2022-10-14T12:38:29.226Z,50.14
2022-10-14T12:41:34.493Z,50.54
2022-10-14T12:44:14.109Z,51.04
2022-10-14T12:46:47.658Z,51.54
2022-10-14T12:49:31.255Z,51.37
2022-10-14T12:52:05.782Z,51.17
2022-10-14T12:54:37.340Z,51.66
2022-10-14T12:57:30.178Z,51.68
2022-10-14T13:00:01.778Z,51.83
2022-10-14T13:02:44.697Z,51.86
2022-10-14T13:05:34.343Z,51.71
2022-10-14T13:08:20.441Z,51.43
2022-10-14T13:10:50.482Z,51.89
2022-10-14T13:13:37.218Z,51.94
2022-10-14T13:16:28.317Z,52.79
2022-10-14T13:18:58.408Z,52.94
2022-10-14T13:21:35.029Z,53.21
2022-10-14T13:24:07.821Z,53.58
2022-10-14T13:26:53.592Z,54.07
2022-10-14T13:29:40.160Z,54.38
2022-10-14T13:32:49.061Z,54.42
2022-10-14T13:35:30.978Z,54.77
2022-10-14T13:38:01.356Z,55.10
2022-10-14T13:40:45.370Z,55.49
2022-10-14T13:43:40.572Z,56.09
2022-10-14T13:46:30.010Z,56.92
2022-10-14T13:49:02.404Z,57.01
2022-10-14T13:51:36.937Z,57.33
2022-10-14T13:54:26.706Z,57.79
2022-10-14T14:00:40.329Z,57.97
2022-10-14T14:03:36.872Z,58.21
2022-10-14T14:06:13.091Z,57.99
2022-10-14T14:08:55.399Z,57.74
2022-10-14T14:11:25.014Z,57.98
2022-10-14T14:13:58.943Z,57.79
2022-10-14T14:16:37.963Z,57.98
2022-10-14T14:19:10.437Z,58.85
2022-10-14T14:21:38.930Z,59.66
2022-10-14T14:24:23.458Z,60.27
2022-10-14T14:26:56.123Z,60.62
2022-10-14T14:29:31.129Z,61.52
2022-10-14T14:32:08.785Z,61.83
2022-10-14T14:34:39.948Z,62.06
2022-10-14T14:40:19.028Z,62.72
2022-10-14T14:42:49.264Z,62.62
2022-10-14T14:45:25.537Z,63.13
2022-10-14T14:47:57.133Z,63.62
2022-10-14T14:50:33.709Z,63.89
2022-10-14T14:53:07.097Z,64.29
2022-10-14T14:55:39.834Z,64.60
2022-10-14T14:58:36.195Z,65.08
2022-10-14T15:01:07.689Z,65.55
2022-10-14T15:04:15.383Z,66.11
2022-10-14T15:07:17.476Z,66.66
2022-10-14T15:09:52.160Z,66.69
2022-10-14T15:12:30.725Z,66.98
2022-10-14T15:15:02.340Z,67.12
2022-10-14T15:17:34.392Z,67.56
2022-10-14T15:20:05.327Z,68.19
2022-10-14T15:22:44.760Z,68.64
2022-10-14T15:25:21.390Z,68.73
2022-10-14T15:27:52.046Z,68.94
2022-10-14T15:30:40.518Z,69.64
2022-10-14T15:33:15.745Z,69.77
2022-10-14T15:35:45.690Z,70.13
2022-10-14T15:38:17.027Z,70.37
2022-10-14T15:40:46.764Z,70.29
2022-10-14T15:43:18.050Z,70.52
2022-10-14T15:46:12.054Z,70.92
2022-10-14T15:48:58.617Z,71.29
2022-10-14T15:51:30.614Z,71.54
2022-10-14T15:53:59.113Z,71.97
2022-10-14T15:56:27.016Z,72.00
2022-10-14T15:58:54.925Z,72.56
2022-10-14T16:01:24.240Z,72.19
2022-10-14T16:03:52.537Z,72.32
2022-10-14T16:06:22.774Z,72.70
2022-10-14T16:08:51.101Z,73.08
2022-10-14T16:11:31.013Z,73.56
2022-10-14T16:13:59.124Z,73.88
2022-10-14T16:16:40.642Z,74.35
2022-10-14T16:19:08.558Z,75.16
2022-10-14T16:21:36.850Z,75.59
2022-10-14T16:24:05.521Z,76.09
2022-10-14T16:26:33.589Z,76.53
2022-10-14T16:29:03.353Z,76.67
2022-10-14T16:31:31.365Z,77.07
2022-10-14T16:33:59.113Z,77.58
2022-10-14T16:36:26.915Z,77.69
2022-10-14T16:38:57.502Z,77.82
2022-10-14T16:41:27.791Z,77.88
2022-10-14T16:43:55.521Z,77.78
2022-10-14T16:46:46.199Z,77.91
2022-10-14T16:49:15.058Z,77.79
2022-10-14T16:51:44.084Z,77.94
2022-10-14T16:54:12.451Z,78.05
2022-10-14T16:56:53.478Z,78.01
2022-10-14T16:59:22.586Z,78.24
2022-10-14T17:01:51.196Z,78.41
2022-10-14T17:04:23.272Z,78.67
2022-10-14T17:06:58.654Z,78.69
2022-10-14T17:09:26.615Z,79.06
2022-10-14T17:11:55.051Z,78.89
2022-10-14T17:14:24.328Z,79.35
2022-10-14T17:16:52.476Z,79.41
2022-10-14T17:19:20.887Z,79.82
2022-10-14T17:21:49.186Z,79.81
2022-10-14T17:24:17.465Z,80.10
2022-10-14T17:26:45.620Z,80.29
2022-10-14T17:29:13.425Z,80.29
2022-10-14T17:31:41.810Z,80.58
2022-10-14T17:34:10.821Z,80.21
2022-10-14T17:36:40.179Z,80.35
2022-10-14T17:39:16.382Z,81.25
2022-10-14T17:41:49.071Z,82.66
2022-10-14T17:44:16.965Z,83.43
2022-10-14T17:46:45.143Z,84.24
2022-10-14T17:49:13.177Z,84.64
2022-10-14T17:51:41.111Z,84.96
2022-10-14T17:54:12.095Z,85.59
2022-10-14T17:56:40.998Z,85.60
2022-10-14T17:59:12.042Z,85.02
2022-10-14T18:04:27.921Z,85.73
2022-10-14T18:06:55.773Z,85.76
2022-10-14T18:09:23.687Z,85.50
2022-10-14T18:12:09.098Z,86.00
2022-10-14T18:14:40.707Z,85.82
2022-10-14T18:17:12.909Z,85.62
2022-10-14T18:19:42.048Z,86.16
2022-10-14T18:22:11.188Z,86.44
2022-10-14T18:24:39.631Z,86.49
2022-10-14T18:27:07.453Z,85.90
2022-10-14T18:29:36.841Z,85.64
2022-10-14T18:32:05.481Z,85.60
2022-10-14T18:34:35.671Z,85.54
2022-10-14T18:37:03.748Z,85.88
2022-10-14T18:39:31.716Z,85.96
2022-10-14T18:41:59.412Z,86.51
2022-10-14T18:44:27.497Z,86.58
2022-10-14T18:46:55.300Z,86.92
2022-10-14T18:49:23.337Z,87.36
2022-10-14T18:51:53.195Z,87.77
2022-10-14T18:54:25.072Z,88.20
2022-10-14T18:56:54.105Z,88.40
2022-10-14T18:59:23.466Z,88.76
2022-10-14T19:01:53.236Z,88.65
2022-10-14T19:04:24.342Z,89.35
2022-10-14T19:06:53.194Z,89.41
2022-10-14T19:09:24.761Z,89.60
2022-10-14T19:11:54.238Z,90.09
2022-10-14T19:14:22.525Z,90.37
2022-10-14T19:16:51.044Z,90.58
2022-10-14T19:19:20.362Z,90.92
2022-10-14T19:21:54.443Z,90.84
2022-10-14T19:24:22.539Z,91.42
2022-10-14T19:26:50.471Z,91.85
2022-10-14T19:29:18.257Z,92.26
2022-10-14T19:31:46.191Z,92.04
2022-10-14T19:34:16.305Z,92.11
2022-10-14T19:36:45.773Z,92.29
2022-10-14T19:39:16.424Z,92.39
2022-10-14T19:41:46.537Z,92.63
2022-10-14T19:44:16.141Z,92.63
2022-10-14T19:46:45.049Z,92.46
2022-10-14T19:49:15.035Z,92.47
2022-10-14T19:51:44.148Z,92.57
2022-10-14T19:54:13.087Z,92.34
2022-10-14T19:56:41.330Z,92.29
2022-10-14T19:59:10.014Z,92.27
2022-10-14T20:01:37.889Z,92.22
2022-10-14T20:04:06.106Z,92.25
2022-10-14T20:06:35.876Z,92.17
2022-10-14T20:09:04.357Z,92.19
2022-10-14T20:11:34.678Z,92.26
2022-10-14T20:14:02.644Z,92.62
2022-10-14T20:16:30.697Z,92.47
2022-10-14T20:18:58.561Z,92.27
2022-10-14T20:21:26.936Z,91.86
2022-10-14T20:23:54.966Z,91.93
2022-10-14T20:26:23.047Z,91.97
2022-10-14T20:28:51.699Z,92.17
2022-10-14T20:31:22.517Z,92.12
2022-10-14T20:33:50.289Z,91.92
2022-10-14T20:36:20.178Z,92.00
2022-10-14T20:38:49.413Z,91.88
2022-10-14T20:41:23.069Z,92.16
2022-10-14T20:43:51.568Z,92.15
2022-10-14T20:46:19.837Z,92.38
2022-10-14T20:48:47.793Z,92.30
2022-10-14T20:51:20.206Z,92.43
2022-10-14T20:53:48.062Z,92.35
2022-10-14T20:56:16.149Z,92.10
2022-10-14T20:58:44.065Z,92.46
2022-10-14T21:01:16.848Z,92.79
2022-10-14T21:03:46.167Z,92.55
2022-10-14T21:06:20.542Z,92.37
2022-10-14T21:08:49.783Z,92.41
2022-10-14T21:11:20.871Z,92.71
2022-10-14T21:13:52.369Z,93.11
2022-10-14T21:16:24.890Z,93.33
2022-10-14T21:18:58.808Z,93.92
2022-10-14T21:21:34.007Z,94.41
2022-10-14T21:24:02.097Z,94.83
2022-10-14T21:26:30.316Z,95.42
2022-10-14T21:28:59.763Z,95.99
2022-10-14T21:31:27.801Z,96.31
2022-10-14T21:34:02.524Z,96.78
2022-10-14T21:36:37.091Z,97.32
2022-10-14T21:39:10.123Z,97.58
2022-10-14T21:41:38.886Z,97.77
2022-10-14T21:44:08.089Z,98.00
2022-10-14T21:46:36.567Z,98.61
2022-10-14T21:49:04.508Z,99.19
2022-10-14T21:51:32.944Z,99.53
2022-10-14T21:54:00.850Z,99.94
2022-10-14T21:56:29.447Z,100.00
2022-10-14T21:58:57.854Z,100.00
2022-10-14T22:01:29.007Z,100.00
2022-10-14T22:04:05.415Z,100.00
2022-10-14T22:06:34.943Z,100.00
2022-10-14T22:09:06.046Z,100.00
2022-10-14T22:11:37.681Z,100.00
2022-10-14T22:14:08.580Z,100.00
2022-10-14T22:16:36.609Z,100.00
2022-10-14T22:19:06.323Z,100.00
2022-10-14T22:21:36.593Z,100.00
2022-10-14T22:24:05.221Z,100.00
2022-10-14T22:26:33.785Z,100.00
2022-10-14T22:29:04.705Z,100.00
2022-10-14T22:31:34.677Z,100.00
2022-10-14T22:34:04.722Z,100.00
2022-10-14T22:36:34.700Z,100.00
2022-10-14T22:39:06.593Z,100.00
2022-10-14T22:41:35.851Z,100.00
2022-10-14T22:44:05.416Z,100.00
2022-10-14T22:46:35.377Z,100.00
2022-10-14T22:49:04.251Z,100.00
2022-10-14T22:51:35.087Z,100.00
2022-10-14T22:54:03.494Z,100.00
2022-10-14T22:56:32.491Z,100.00
2022-10-14T22:59:03.387Z,100.00
2022-10-14T23:01:32.203Z,100.00
2022-10-14T23:04:00.566Z,100.00
2022-10-14T23:06:29.506Z,100.00
2022-10-14T23:09:00.450Z,100.00
2022-10-14T23:11:30.484Z,100.00
2022-10-14T23:14:01.465Z,100.00
2022-10-14T23:16:32.605Z,100.00
2022-10-14T23:19:00.537Z,100.00
2022-10-14T23:21:31.373Z,100.00
2022-10-14T23:24:01.774Z,100.00
2022-10-14T23:26:33.192Z,100.00
2022-10-14T23:29:03.272Z,100.00
2022-10-14T23:31:34.066Z,100.00
2022-10-14T23:34:04.814Z,100.00
2022-10-14T23:36:33.402Z,100.00
2022-10-14T23:39:01.079Z,100.00
2022-10-14T23:41:29.010Z,100.00
2022-10-14T23:43:56.990Z,100.00
2022-10-14T23:46:24.810Z,100.00
2022-10-14T23:49:06.949Z,100.00
2022-10-14T23:51:36.070Z,100.00
2022-10-14T23:54:04.453Z,100.00
2022-10-14T23:56:32.222Z,100.00
2022-10-14T23:59:00.043Z,100.00
